Kansas City International Airport
KMCI : now visible

Airfield :











YOU CAN JOIN US ON...

 
LOGIN :

Register | Disclaimer

   EN    FR    IT 

 









Legend :    VFR   Marginal VFR   IFR   Intensive IFR   Very Intensive IFR
Visi :
Ceiling :
>= 8 km
>= 3000ft
5 to 8 km
1000 to 3000 ft
1500m to 5 km
500 to 1000 ft
800 to 1500m
200 to 500 ft
< 800m
< 200 ft
Symbols :   Thunderstorms  Fog  Heavy snow  Heavy precipitations  Wind > 20 kt






- Airport Elevation : 1026 ft
- IATA code : MCI


KMCI - Kansas City International

CURRENT METAR :
  • 162159Z 09009KT 2SM -RA BR SCT009 BKN019 OVC024 20/19 A3006 RMK AO2 DZE59RAB59 P0000 T02000189

EXPIRED METARs :
  • 162153Z 08008KT 3SM -DZ BR FEW012 BKN019 OVC024 21/19 A3006 RMK AO2 DZE2059B49 SLP172 P0000 T02060189
  • 162053Z 07009KT 6SM -DZ BR BKN015 OVC019 20/19 A3006 RMK AO2 DZE07B31 SLP172 P0000 60000 T02000189 53005
  • 162018Z 07011KT 9SM BKN010 OVC018 21/18 A3005 RMK AO2 DZE07 P0000 T02060183
  • 161953Z 08009KT 10SM -DZ OVC008 20/18 A3005 RMK AO2 RAB50E53DZB53 SLP166 P0000 T02000183

TAF KMCI
Valid from the 16 at 18:00 until the 17 at 18:00 UTC


161729Z 1618/1718 06009KT P6SM VCSH OVC005
TEMPO 1618/1620 5SM -SHRA BR
FM162000 08011KT P6SM BKN015
FM170200 07006KT P6SM BKN080
KZKC FIR / North America



MET'MAP, your aeronautical weather chart ! - Copyright ORBIFLY December 2007 - Disclaimer

ORBIFLY MET'MAP TEAM :

Programming & Development : Alexandra Zaïnal
Original concept : Baudouin d'Aumeries
Technical & hardware support : Manuel Goepfert
Assistance : Marc-Olivier Méhu




SOURCES & CREDITS :

   NOAA       Earth
Advisory